Quesnel Airport
CYQZ : now visible

Airfield :











YOU CAN JOIN US ON...

 
LOGIN :

Register | Disclaimer

   EN    FR    IT 

 









Legend :    VFR   Marginal VFR   IFR   Intensive IFR   Very Intensive IFR
Visi :
Ceiling :
>= 8 km
>= 3000ft
5 to 8 km
1000 to 3000 ft
1500m to 5 km
500 to 1000 ft
800 to 1500m
200 to 500 ft
< 800m
< 200 ft
Symbols :   Thunderstorms  Fog  Heavy snow  Heavy precipitations  Wind > 20 kt






- Airport Elevation : 1789 ft
- IATA code : YQZ


CYQZ - Quesnel

CURRENT METAR :
  • 220300Z AUTO 34010KT 9SM FEW071 BKN098 13/M01 A2985 RMK SLP126 DENSITY ALT 2100FT

EXPIRED METARs :
  • 220217Z AUTO 31014KT 9SM FEW100 14/M03 A2984 RMK WSHFT AT 0203Z SLP114 DENSITY ALT 2300FT
  • 220200Z AUTO 36010G19KT 9SM SCT110 15/M02 A2985 RMK SLP126 DENSITY ALT 2300FT
  • 220100Z AUTO 33014KT 9SM SCT100 SCT120 16/M02 A2985 RMK SLP127 DENSITY ALT 2500FT

TAF TAF CYQZ
Valid from the 22 at 01:00 until the 22 at 06:00 UTC


220038Z 2201/2206 34010G20KT P6SM SCT080
TEMPO 2201/2204 BKN080
FM220400 34015G25KT P6SM BKN030
TEMPO 2204/2206 P6SM -SHRA BKN020 RMK FCST BASED ON AUTO OBS. NXT FCST WILL BE ISSUED AT 221145Z
CZVR FIR / North America



MET'MAP, your aeronautical weather chart ! - Copyright ORBIFLY December 2007 - Disclaimer

ORBIFLY MET'MAP TEAM :

Programming & Development : Alexandra Zaïnal
Concept & original design : Baudouin d'Aumeries
Assistance for programming : Marc-Olivier Méhu
Technical & hardware support : Manuel Goepfert

Contact : metmap@orbifly.com




SOURCES & CREDITS :

   NOAA       Earth
Advisory